sensor_id;sensor_type;location;lat;lon;timestamp;temperature;humidity
52295;DHT22;38243;53.212;6.574;2023-04-24T00:00:04;19.00;78.80
52295;DHT22;38243;53.212;6.574;2023-04-24T00:02:38;19.00;78.90
52295;DHT22;38243;53.212;6.574;2023-04-24T00:05:05;19.00;78.90
52295;DHT22;38243;53.212;6.574;2023-04-24T00:07:31;19.00;79.00
52295;DHT22;38243;53.212;6.574;2023-04-24T00:09:57;19.00;79.00
52295;DHT22;38243;53.212;6.574;2023-04-24T00:12:23;19.00;79.00
52295;DHT22;38243;53.212;6.574;2023-04-24T00:14:48;19.00;79.10
52295;DHT22;38243;53.212;6.574;2023-04-24T00:17:15;19.00;79.00
52295;DHT22;38243;53.212;6.574;2023-04-24T00:19:40;19.00;79.20
52295;DHT22;38243;53.212;6.574;2023-04-24T00:22:06;19.00;79.30
52295;DHT22;38243;53.212;6.574;2023-04-24T00:24:32;18.90;79.20
52295;DHT22;38243;53.212;6.574;2023-04-24T00:26:57;18.90;79.20
52295;DHT22;38243;53.212;6.574;2023-04-24T00:29:23;18.90;79.40
52295;DHT22;38243;53.212;6.574;2023-04-24T00:31:49;18.90;79.40
52295;DHT22;38243;53.212;6.574;2023-04-24T00:34:15;18.90;79.40
52295;DHT22;38243;53.212;6.574;2023-04-24T00:36:41;18.90;79.40
52295;DHT22;38243;53.212;6.574;2023-04-24T00:39:07;18.90;79.50
52295;DHT22;38243;53.212;6.574;2023-04-24T00:41:35;18.90;79.40
52295;DHT22;38243;53.212;6.574;2023-04-24T00:44:01;18.80;79.30
52295;DHT22;38243;53.212;6.574;2023-04-24T00:46:27;18.80;79.30
52295;DHT22;38243;53.212;6.574;2023-04-24T00:48:53;18.80;79.40
52295;DHT22;38243;53.212;6.574;2023-04-24T00:51:18;18.80;79.50
52295;DHT22;38243;53.212;6.574;2023-04-24T00:53:45;18.80;79.40
52295;DHT22;38243;53.212;6.574;2023-04-24T00:56:11;18.80;79.50
52295;DHT22;38243;53.212;6.574;2023-04-24T00:58:37;18.80;79.60
52295;DHT22;38243;53.212;6.574;2023-04-24T01:01:03;18.80;79.50
52295;DHT22;38243;53.212;6.574;2023-04-24T01:03:33;18.80;79.40
52295;DHT22;38243;53.212;6.574;2023-04-24T01:05:59;18.80;79.40
52295;DHT22;38243;53.212;6.574;2023-04-24T01:08:26;18.80;79.40
52295;DHT22;38243;53.212;6.574;2023-04-24T01:10:53;18.80;79.50
52295;DHT22;38243;53.212;6.574;2023-04-24T01:13:20;18.70;79.60
52295;DHT22;38243;53.212;6.574;2023-04-24T01:15:46;18.70;79.50
52295;DHT22;38243;53.212;6.574;2023-04-24T01:18:13;18.70;79.60
52295;DHT22;38243;53.212;6.574;2023-04-24T01:20:42;18.70;79.60
52295;DHT22;38243;53.212;6.574;2023-04-24T01:23:10;18.70;79.60
52295;DHT22;38243;53.212;6.574;2023-04-24T01:25:37;18.60;79.70
52295;DHT22;38243;53.212;6.574;2023-04-24T01:28:03;18.70;79.80
52295;DHT22;38243;53.212;6.574;2023-04-24T01:30:31;18.70;80.50
52295;DHT22;38243;53.212;6.574;2023-04-24T01:32:57;18.70;79.90
52295;DHT22;38243;53.212;6.574;2023-04-24T01:35:24;18.70;80.00
52295;DHT22;38243;53.212;6.574;2023-04-24T01:37:50;18.70;79.90
52295;DHT22;38243;53.212;6.574;2023-04-24T01:40:16;18.70;79.80
52295;DHT22;38243;53.212;6.574;2023-04-24T01:42:41;18.70;79.90
52295;DHT22;38243;53.212;6.574;2023-04-24T01:45:11;18.70;79.80
52295;DHT22;38243;53.212;6.574;2023-04-24T01:47:37;18.70;79.80
52295;DHT22;38243;53.212;6.574;2023-04-24T01:50:04;18.70;79.90
52295;DHT22;38243;53.212;6.574;2023-04-24T01:52:30;18.70;80.00
52295;DHT22;38243;53.212;6.574;2023-04-24T01:55:03;18.70;79.90
52295;DHT22;38243;53.212;6.574;2023-04-24T01:57:30;18.60;79.90
52295;DHT22;38243;53.212;6.574;2023-04-24T01:59:56;18.60;79.90
52295;DHT22;38243;53.212;6.574;2023-04-24T02:02:22;18.60;80.00
52295;DHT22;38243;53.212;6.574;2023-04-24T02:04:53;18.60;79.90
52295;DHT22;38243;53.212;6.574;2023-04-24T02:07:18;18.30;79.80
52295;DHT22;38243;53.212;6.574;2023-04-24T02:09:44;18.60;80.10
52295;DHT22;38243;53.212;6.574;2023-04-24T02:12:10;18.60;80.10
52295;DHT22;38243;53.212;6.574;2023-04-24T02:14:36;18.60;80.30
52295;DHT22;38243;53.212;6.574;2023-04-24T02:17:02;18.60;80.30
52295;DHT22;38243;53.212;6.574;2023-04-24T02:19:28;18.60;80.20
52295;DHT22;38243;53.212;6.574;2023-04-24T02:21:53;18.60;80.40
52295;DHT22;38243;53.212;6.574;2023-04-24T02:24:20;18.60;80.40
52295;DHT22;38243;53.212;6.574;2023-04-24T02:26:46;18.60;80.30
52295;DHT22;38243;53.212;6.574;2023-04-24T02:29:12;18.60;80.30
52295;DHT22;38243;53.212;6.574;2023-04-24T02:31:37;18.60;80.40
52295;DHT22;38243;53.212;6.574;2023-04-24T02:34:03;18.60;80.40
52295;DHT22;38243;53.212;6.574;2023-04-24T02:36:29;18.60;80.40
52295;DHT22;38243;53.212;6.574;2023-04-24T02:38:55;18.60;80.40
52295;DHT22;38243;53.212;6.574;2023-04-24T02:41:21;18.50;80.30
52295;DHT22;38243;53.212;6.574;2023-04-24T02:43:47;18.50;80.30
52295;DHT22;38243;53.212;6.574;2023-04-24T02:46:13;18.50;80.30
52295;DHT22;38243;53.212;6.574;2023-04-24T02:48:38;18.50;80.40
52295;DHT22;38243;53.212;6.574;2023-04-24T02:51:04;18.50;80.40
52295;DHT22;38243;53.212;6.574;2023-04-24T02:53:30;18.50;80.50
52295;DHT22;38243;53.212;6.574;2023-04-24T02:55:56;18.50;80.50
52295;DHT22;38243;53.212;6.574;2023-04-24T02:58:22;18.50;80.60
52295;DHT22;38243;53.212;6.574;2023-04-24T03:00:48;18.50;80.50
52295;DHT22;38243;53.212;6.574;2023-04-24T03:03:14;18.50;80.50
52295;DHT22;38243;53.212;6.574;2023-04-24T03:05:40;18.50;80.50
52295;DHT22;38243;53.212;6.574;2023-04-24T03:08:06;18.50;80.80
52295;DHT22;38243;53.212;6.574;2023-04-24T03:10:32;18.50;80.60
52295;DHT22;38243;53.212;6.574;2023-04-24T03:12:58;18.50;80.70
52295;DHT22;38243;53.212;6.574;2023-04-24T03:15:23;18.50;80.70
52295;DHT22;38243;53.212;6.574;2023-04-24T03:17:49;18.50;80.70
52295;DHT22;38243;53.212;6.574;2023-04-24T03:20:15;18.50;80.70
52295;DHT22;38243;53.212;6.574;2023-04-24T03:22:41;18.50;80.80
52295;DHT22;38243;53.212;6.574;2023-04-24T03:25:07;18.50;80.70
52295;DHT22;38243;53.212;6.574;2023-04-24T03:27:34;18.50;80.80
52295;DHT22;38243;53.212;6.574;2023-04-24T03:30:00;18.50;80.80
52295;DHT22;38243;53.212;6.574;2023-04-24T03:32:26;18.50;80.80
52295;DHT22;38243;53.212;6.574;2023-04-24T03:34:52;18.50;80.80
52295;DHT22;38243;53.212;6.574;2023-04-24T03:37:18;18.50;80.80
52295;DHT22;38243;53.212;6.574;2023-04-24T03:39:44;17.70;80.40
52295;DHT22;38243;53.212;6.574;2023-04-24T03:42:10;18.40;80.80
52295;DHT22;38243;53.212;6.574;2023-04-24T03:44:36;18.50;80.90
52295;DHT22;38243;53.212;6.574;2023-04-24T03:47:02;18.40;80.90
52295;DHT22;38243;53.212;6.574;2023-04-24T03:49:27;18.40;80.90
52295;DHT22;38243;53.212;6.574;2023-04-24T03:51:53;18.50;80.90
52295;DHT22;38243;53.212;6.574;2023-04-24T03:54:19;18.50;80.90
52295;DHT22;38243;53.212;6.574;2023-04-24T03:56:45;18.50;81.00
52295;DHT22;38243;53.212;6.574;2023-04-24T03:59:11;18.40;80.90
52295;DHT22;38243;53.212;6.574;2023-04-24T04:01:37;18.40;80.90
52295;DHT22;38243;53.212;6.574;2023-04-24T04:04:03;18.50;81.00
52295;DHT22;38243;53.212;6.574;2023-04-24T04:06:29;18.40;80.90
52295;DHT22;38243;53.212;6.574;2023-04-24T04:08:56;18.40;80.80
52295;DHT22;38243;53.212;6.574;2023-04-24T04:11:23;18.40;80.90
52295;DHT22;38243;53.212;6.574;2023-04-24T04:13:48;18.40;80.90
52295;DHT22;38243;53.212;6.574;2023-04-24T04:16:14;18.50;80.90
52295;DHT22;38243;53.212;6.574;2023-04-24T04:18:42;18.40;80.90
52295;DHT22;38243;53.212;6.574;2023-04-24T04:21:08;18.40;80.90
52295;DHT22;38243;53.212;6.574;2023-04-24T04:23:34;18.50;81.00
52295;DHT22;38243;53.212;6.574;2023-04-24T04:26:00;18.40;81.00
52295;DHT22;38243;53.212;6.574;2023-04-24T04:28:26;18.40;81.00
52295;DHT22;38243;53.212;6.574;2023-04-24T04:30:52;18.40;80.90
52295;DHT22;38243;53.212;6.574;2023-04-24T04:33:23;18.40;81.10
52295;DHT22;38243;53.212;6.574;2023-04-24T04:35:50;18.40;81.00
52295;DHT22;38243;53.212;6.574;2023-04-24T04:38:19;18.40;81.10
52295;DHT22;38243;53.212;6.574;2023-04-24T04:40:45;18.40;81.10
52295;DHT22;38243;53.212;6.574;2023-04-24T04:43:11;18.40;81.10
52295;DHT22;38243;53.212;6.574;2023-04-24T04:45:38;18.40;81.10
52295;DHT22;38243;53.212;6.574;2023-04-24T04:48:05;18.40;81.10
52295;DHT22;38243;53.212;6.574;2023-04-24T04:50:33;18.40;81.20
52295;DHT22;38243;53.212;6.574;2023-04-24T04:52:59;18.30;81.20
52295;DHT22;38243;53.212;6.574;2023-04-24T04:55:25;18.40;81.20
52295;DHT22;38243;53.212;6.574;2023-04-24T04:57:51;18.40;81.30
52295;DHT22;38243;53.212;6.574;2023-04-24T05:00:17;18.30;81.30
52295;DHT22;38243;53.212;6.574;2023-04-24T05:02:43;18.40;81.40
52295;DHT22;38243;53.212;6.574;2023-04-24T05:05:09;18.40;81.40
52295;DHT22;38243;53.212;6.574;2023-04-24T05:07:35;18.40;81.40
52295;DHT22;38243;53.212;6.574;2023-04-24T05:10:01;18.40;81.20
52295;DHT22;38243;53.212;6.574;2023-04-24T05:12:27;17.90;80.90
52295;DHT22;38243;53.212;6.574;2023-04-24T05:14:53;18.40;81.20
52295;DHT22;38243;53.212;6.574;2023-04-24T05:17:19;18.40;81.10
52295;DHT22;38243;53.212;6.574;2023-04-24T05:19:44;18.40;81.10
52295;DHT22;38243;53.212;6.574;2023-04-24T05:22:10;18.40;81.10
52295;DHT22;38243;53.212;6.574;2023-04-24T05:24:37;18.40;81.10
52295;DHT22;38243;53.212;6.574;2023-04-24T05:27:03;18.40;81.10
52295;DHT22;38243;53.212;6.574;2023-04-24T05:29:32;18.40;81.10
52295;DHT22;38243;53.212;6.574;2023-04-24T05:31:59;18.40;81.10
52295;DHT22;38243;53.212;6.574;2023-04-24T05:34:25;18.40;81.10
52295;DHT22;38243;53.212;6.574;2023-04-24T05:36:52;18.40;81.10
52295;DHT22;38243;53.212;6.574;2023-04-24T05:39:18;18.50;81.10
52295;DHT22;38243;53.212;6.574;2023-04-24T05:41:45;18.50;81.10
52295;DHT22;38243;53.212;6.574;2023-04-24T05:44:11;18.50;81.00
52295;DHT22;38243;53.212;6.574;2023-04-24T05:46:36;18.50;80.90
52295;DHT22;38243;53.212;6.574;2023-04-24T05:49:02;18.50;80.80
52295;DHT22;38243;53.212;6.574;2023-04-24T05:51:28;18.50;80.70
52295;DHT22;38243;53.212;6.574;2023-04-24T05:53:54;18.50;80.70
52295;DHT22;38243;53.212;6.574;2023-04-24T05:56:20;18.50;80.60
52295;DHT22;38243;53.212;6.574;2023-04-24T05:58:46;18.50;80.60
52295;DHT22;38243;53.212;6.574;2023-04-24T06:01:13;18.60;80.50
52295;DHT22;38243;53.212;6.574;2023-04-24T06:03:40;18.50;80.50
52295;DHT22;38243;53.212;6.574;2023-04-24T06:06:07;18.60;80.40
52295;DHT22;38243;53.212;6.574;2023-04-24T06:08:33;18.60;80.40
52295;DHT22;38243;53.212;6.574;2023-04-24T06:10:59;18.60;80.30
52295;DHT22;38243;53.212;6.574;2023-04-24T06:13:25;18.60;80.30
52295;DHT22;38243;53.212;6.574;2023-04-24T06:15:52;18.60;80.20
52295;DHT22;38243;53.212;6.574;2023-04-24T06:18:18;18.60;80.30
52295;DHT22;38243;53.212;6.574;2023-04-24T06:20:46;18.60;80.20
52295;DHT22;38243;53.212;6.574;2023-04-24T06:23:12;18.60;80.30
52295;DHT22;38243;53.212;6.574;2023-04-24T06:25:38;18.60;80.30
52295;DHT22;38243;53.212;6.574;2023-04-24T06:28:04;18.60;80.30
52295;DHT22;38243;53.212;6.574;2023-04-24T06:30:30;18.60;80.50
52295;DHT22;38243;53.212;6.574;2023-04-24T06:32:56;18.70;80.70
52295;DHT22;38243;53.212;6.574;2023-04-24T06:35:22;18.70;80.70
52295;DHT22;38243;53.212;6.574;2023-04-24T06:37:48;18.60;80.60
52295;DHT22;38243;53.212;6.574;2023-04-24T06:40:14;18.70;80.80
52295;DHT22;38243;53.212;6.574;2023-04-24T06:42:39;18.70;80.80
52295;DHT22;38243;53.212;6.574;2023-04-24T06:45:05;18.70;81.10
52295;DHT22;38243;53.212;6.574;2023-04-24T06:47:31;18.60;81.00
52295;DHT22;38243;53.212;6.574;2023-04-24T06:49:57;18.60;81.30
52295;DHT22;38243;53.212;6.574;2023-04-24T06:52:23;18.50;81.40
52295;DHT22;38243;53.212;6.574;2023-04-24T06:54:49;18.40;81.70
52295;DHT22;38243;53.212;6.574;2023-04-24T06:57:14;18.40;81.90
52295;DHT22;38243;53.212;6.574;2023-04-24T06:59:41;18.30;81.90
52295;DHT22;38243;53.212;6.574;2023-04-24T07:02:07;18.20;82.10
52295;DHT22;38243;53.212;6.574;2023-04-24T07:04:33;18.20;82.40
52295;DHT22;38243;53.212;6.574;2023-04-24T07:06:59;18.20;82.20
52295;DHT22;38243;53.212;6.574;2023-04-24T07:09:25;18.20;82.20
52295;DHT22;38243;53.212;6.574;2023-04-24T07:11:54;18.20;82.10
52295;DHT22;38243;53.212;6.574;2023-04-24T07:14:23;18.10;82.00
52295;DHT22;38243;53.212;6.574;2023-04-24T07:16:48;18.00;82.10
52295;DHT22;38243;53.212;6.574;2023-04-24T07:19:14;18.00;82.20
52295;DHT22;38243;53.212;6.574;2023-04-24T07:21:41;18.10;82.10
52295;DHT22;38243;53.212;6.574;2023-04-24T07:24:07;18.10;82.00
52295;DHT22;38243;53.212;6.574;2023-04-24T07:26:37;18.10;81.90
52295;DHT22;38243;53.212;6.574;2023-04-24T07:29:04;18.10;81.90
52295;DHT22;38243;53.212;6.574;2023-04-24T07:31:30;18.10;81.90
52295;DHT22;38243;53.212;6.574;2023-04-24T07:33:56;18.10;81.90
52295;DHT22;38243;53.212;6.574;2023-04-24T07:36:24;18.00;81.80
52295;DHT22;38243;53.212;6.574;2023-04-24T07:38:51;18.00;81.80
52295;DHT22;38243;53.212;6.574;2023-04-24T07:41:17;18.00;81.80
52295;DHT22;38243;53.212;6.574;2023-04-24T07:43:44;18.00;81.90
52295;DHT22;38243;53.212;6.574;2023-04-24T07:46:10;17.90;81.80
52295;DHT22;38243;53.212;6.574;2023-04-24T07:48:36;18.00;81.90
52295;DHT22;38243;53.212;6.574;2023-04-24T07:51:02;18.00;81.80
52295;DHT22;38243;53.212;6.574;2023-04-24T07:53:27;17.60;81.50
52295;DHT22;38243;53.212;6.574;2023-04-24T07:55:55;18.10;81.70
52295;DHT22;38243;53.212;6.574;2023-04-24T07:58:21;18.10;81.50
52295;DHT22;38243;53.212;6.574;2023-04-24T08:00:47;18.10;81.40
52295;DHT22;38243;53.212;6.574;2023-04-24T08:03:13;18.20;81.40
52295;DHT22;38243;53.212;6.574;2023-04-24T08:05:39;18.20;81.30
52295;DHT22;38243;53.212;6.574;2023-04-24T08:08:04;18.20;81.10
52295;DHT22;38243;53.212;6.574;2023-04-24T08:10:30;18.20;80.90
52295;DHT22;38243;53.212;6.574;2023-04-24T08:12:56;18.30;80.90
52295;DHT22;38243;53.212;6.574;2023-04-24T08:15:22;18.30;81.00
52295;DHT22;38243;53.212;6.574;2023-04-24T08:17:47;18.30;80.90
52295;DHT22;38243;53.212;6.574;2023-04-24T08:20:13;18.30;80.80
52295;DHT22;38243;53.212;6.574;2023-04-24T08:22:40;18.30;80.90
52295;DHT22;38243;53.212;6.574;2023-04-24T08:25:06;18.30;80.90
52295;DHT22;38243;53.212;6.574;2023-04-24T08:27:32;18.30;81.00
52295;DHT22;38243;53.212;6.574;2023-04-24T08:29:58;18.30;80.90
52295;DHT22;38243;53.212;6.574;2023-04-24T08:32:25;18.20;80.80
52295;DHT22;38243;53.212;6.574;2023-04-24T08:34:55;18.20;80.80
52295;DHT22;38243;53.212;6.574;2023-04-24T08:37:25;18.20;81.00
52295;DHT22;38243;53.212;6.574;2023-04-24T08:39:51;18.20;80.90
52295;DHT22;38243;53.212;6.574;2023-04-24T08:42:18;18.20;80.80
52295;DHT22;38243;53.212;6.574;2023-04-24T08:44:45;18.20;81.00
52295;DHT22;38243;53.212;6.574;2023-04-24T08:47:12;18.20;80.70
52295;DHT22;38243;53.212;6.574;2023-04-24T08:49:38;18.20;80.60
52295;DHT22;38243;53.212;6.574;2023-04-24T08:52:07;18.20;80.70
52295;DHT22;38243;53.212;6.574;2023-04-24T08:54:36;18.20;80.40
52295;DHT22;38243;53.212;6.574;2023-04-24T08:57:03;18.20;80.60
52295;DHT22;38243;53.212;6.574;2023-04-24T08:59:30;18.10;80.60
52295;DHT22;38243;53.212;6.574;2023-04-24T09:01:57;18.10;80.50
52295;DHT22;38243;53.212;6.574;2023-04-24T09:04:24;18.10;80.30
52295;DHT22;38243;53.212;6.574;2023-04-24T09:06:57;18.10;80.20
52295;DHT22;38243;53.212;6.574;2023-04-24T09:09:24;18.00;80.30
52295;DHT22;38243;53.212;6.574;2023-04-24T09:11:51;18.00;80.10
52295;DHT22;38243;53.212;6.574;2023-04-24T09:14:19;17.90;80.40
52295;DHT22;38243;53.212;6.574;2023-04-24T09:16:46;17.90;80.60
52295;DHT22;38243;53.212;6.574;2023-04-24T09:19:13;17.90;80.40
52295;DHT22;38243;53.212;6.574;2023-04-24T09:21:38;17.90;80.50
52295;DHT22;38243;53.212;6.574;2023-04-24T09:24:08;17.90;80.20
52295;DHT22;38243;53.212;6.574;2023-04-24T09:26:39;17.80;79.20
52295;DHT22;38243;53.212;6.574;2023-04-24T09:29:05;17.80;80.10
52295;DHT22;38243;53.212;6.574;2023-04-24T09:31:31;17.70;80.10
52295;DHT22;38243;53.212;6.574;2023-04-24T09:34:01;17.80;80.30
52295;DHT22;38243;53.212;6.574;2023-04-24T09:36:33;17.70;79.90
52295;DHT22;38243;53.212;6.574;2023-04-24T09:39:01;17.70;80.00
52295;DHT22;38243;53.212;6.574;2023-04-24T09:41:27;17.70;80.80
52295;DHT22;38243;53.212;6.574;2023-04-24T09:43:55;17.70;80.80
52295;DHT22;38243;53.212;6.574;2023-04-24T09:46:28;17.80;81.00
52295;DHT22;38243;53.212;6.574;2023-04-24T09:48:54;17.90;81.20
52295;DHT22;38243;53.212;6.574;2023-04-24T09:51:33;17.90;81.30
52295;DHT22;38243;53.212;6.574;2023-04-24T09:54:01;18.00;81.30
52295;DHT22;38243;53.212;6.574;2023-04-24T09:56:26;18.00;81.30
52295;DHT22;38243;53.212;6.574;2023-04-24T09:58:52;18.10;81.50
52295;DHT22;38243;53.212;6.574;2023-04-24T10:01:32;18.10;81.50
52295;DHT22;38243;53.212;6.574;2023-04-24T10:03:59;18.10;81.30
52295;DHT22;38243;53.212;6.574;2023-04-24T10:06:34;18.20;81.50
52295;DHT22;38243;53.212;6.574;2023-04-24T10:09:00;18.20;81.10
52295;DHT22;38243;53.212;6.574;2023-04-24T10:11:30;18.30;81.10
52295;DHT22;38243;53.212;6.574;2023-04-24T10:13:56;18.30;81.30
52295;DHT22;38243;53.212;6.574;2023-04-24T10:16:23;18.30;81.00
52295;DHT22;38243;53.212;6.574;2023-04-24T10:18:49;18.40;81.00
52295;DHT22;38243;53.212;6.574;2023-04-24T10:21:19;18.30;80.70
52295;DHT22;38243;53.212;6.574;2023-04-24T10:23:45;18.50;80.80
52295;DHT22;38243;53.212;6.574;2023-04-24T10:26:16;18.50;80.90
52295;DHT22;38243;53.212;6.574;2023-04-24T10:28:46;18.60;80.70
52295;DHT22;38243;53.212;6.574;2023-04-24T10:31:13;18.60;80.80
52295;DHT22;38243;53.212;6.574;2023-04-24T10:33:43;18.60;81.60
52295;DHT22;38243;53.212;6.574;2023-04-24T10:36:12;18.60;80.80
52295;DHT22;38243;53.212;6.574;2023-04-24T10:38:40;18.70;80.50
52295;DHT22;38243;53.212;6.574;2023-04-24T10:41:12;18.70;80.40
52295;DHT22;38243;53.212;6.574;2023-04-24T10:44:10;18.70;80.30
52295;DHT22;38243;53.212;6.574;2023-04-24T10:46:37;18.80;80.10
52295;DHT22;38243;53.212;6.574;2023-04-24T10:49:05;18.80;79.80
52295;DHT22;38243;53.212;6.574;2023-04-24T10:51:51;18.80;79.70
52295;DHT22;38243;53.212;6.574;2023-04-24T10:54:41;18.90;79.60
52295;DHT22;38243;53.212;6.574;2023-04-24T10:59:47;18.90;79.40
52295;DHT22;38243;53.212;6.574;2023-04-24T11:02:17;18.90;79.10
52295;DHT22;38243;53.212;6.574;2023-04-24T11:04:44;18.90;79.10
52295;DHT22;38243;53.212;6.574;2023-04-24T11:07:11;18.90;79.30
52295;DHT22;38243;53.212;6.574;2023-04-24T11:09:37;18.90;79.00
52295;DHT22;38243;53.212;6.574;2023-04-24T11:12:12;19.00;78.80
52295;DHT22;38243;53.212;6.574;2023-04-24T11:14:59;19.00;78.60
52295;DHT22;38243;53.212;6.574;2023-04-24T11:17:38;18.90;78.50
52295;DHT22;38243;53.212;6.574;2023-04-24T11:20:16;18.90;78.60
52295;DHT22;38243;53.212;6.574;2023-04-24T11:22:42;18.90;78.40
52295;DHT22;38243;53.212;6.574;2023-04-24T11:25:08;18.90;78.30
52295;DHT22;38243;53.212;6.574;2023-04-24T11:27:44;18.90;78.00
52295;DHT22;38243;53.212;6.574;2023-04-24T11:30:11;18.90;78.30
52295;DHT22;38243;53.212;6.574;2023-04-24T11:32:39;18.90;78.40
52295;DHT22;38243;53.212;6.574;2023-04-24T11:35:18;18.90;78.00
52295;DHT22;38243;53.212;6.574;2023-04-24T11:37:49;19.00;78.00
52295;DHT22;38243;53.212;6.574;2023-04-24T11:40:17;18.90;77.70
52295;DHT22;38243;53.212;6.574;2023-04-24T11:42:49;19.00;77.70
52295;DHT22;38243;53.212;6.574;2023-04-24T11:45:25;18.90;77.80
52295;DHT22;38243;53.212;6.574;2023-04-24T11:47:51;18.90;77.80
52295;DHT22;38243;53.212;6.574;2023-04-24T11:50:19;18.90;77.40
52295;DHT22;38243;53.212;6.574;2023-04-24T11:52:46;18.90;77.70
52295;DHT22;38243;53.212;6.574;2023-04-24T12:00:16;18.90;77.40
52295;DHT22;38243;53.212;6.574;2023-04-24T12:02:44;19.00;77.10
52295;DHT22;38243;53.212;6.574;2023-04-24T12:05:19;19.00;77.70
52295;DHT22;38243;53.212;6.574;2023-04-24T12:07:45;19.00;78.00
52295;DHT22;38243;53.212;6.574;2023-04-24T12:10:11;18.90;77.40
52295;DHT22;38243;53.212;6.574;2023-04-24T12:12:37;18.90;78.30
52295;DHT22;38243;53.212;6.574;2023-04-24T12:15:07;18.90;77.90
52295;DHT22;38243;53.212;6.574;2023-04-24T12:17:34;18.90;78.40
52295;DHT22;38243;53.212;6.574;2023-04-24T12:20:03;18.90;78.70
52295;DHT22;38243;53.212;6.574;2023-04-24T12:22:46;18.90;78.40
52295;DHT22;38243;53.212;6.574;2023-04-24T12:25:12;18.90;78.20
52295;DHT22;38243;53.212;6.574;2023-04-24T12:27:38;18.90;78.50
52295;DHT22;38243;53.212;6.574;2023-04-24T12:30:05;18.90;78.70
52295;DHT22;38243;53.212;6.574;2023-04-24T12:32:32;18.90;78.60
52295;DHT22;38243;53.212;6.574;2023-04-24T12:34:58;18.90;78.60
52295;DHT22;38243;53.212;6.574;2023-04-24T12:37:32;18.90;78.70
52295;DHT22;38243;53.212;6.574;2023-04-24T12:40:02;18.90;78.50
52295;DHT22;38243;53.212;6.574;2023-04-24T12:42:29;18.90;78.60
52295;DHT22;38243;53.212;6.574;2023-04-24T12:45:06;18.90;78.60
52295;DHT22;38243;53.212;6.574;2023-04-24T12:47:33;18.90;78.40
52295;DHT22;38243;53.212;6.574;2023-04-24T12:49:59;19.00;78.30
52295;DHT22;38243;53.212;6.574;2023-04-24T12:52:26;19.00;77.70
52295;DHT22;38243;53.212;6.574;2023-04-24T12:54:54;19.00;77.90
52295;DHT22;38243;53.212;6.574;2023-04-24T12:57:21;18.90;77.60
52295;DHT22;38243;53.212;6.574;2023-04-24T12:59:47;18.90;77.70
52295;DHT22;38243;53.212;6.574;2023-04-24T13:02:13;19.00;77.80
52295;DHT22;38243;53.212;6.574;2023-04-24T13:04:38;19.00;77.90
52295;DHT22;38243;53.212;6.574;2023-04-24T13:07:05;19.00;77.70
52295;DHT22;38243;53.212;6.574;2023-04-24T13:09:31;18.90;76.50
52295;DHT22;38243;53.212;6.574;2023-04-24T13:11:57;18.90;76.20
52295;DHT22;38243;53.212;6.574;2023-04-24T13:14:23;18.90;76.40
52295;DHT22;38243;53.212;6.574;2023-04-24T13:16:49;18.90;76.10
52295;DHT22;38243;53.212;6.574;2023-04-24T13:19:15;18.90;76.60
52295;DHT22;38243;53.212;6.574;2023-04-24T13:21:41;18.80;76.40
52295;DHT22;38243;53.212;6.574;2023-04-24T13:24:06;18.90;76.60
52295;DHT22;38243;53.212;6.574;2023-04-24T13:26:33;18.90;76.60
52295;DHT22;38243;53.212;6.574;2023-04-24T13:28:59;18.90;76.50
52295;DHT22;38243;53.212;6.574;2023-04-24T13:31:25;18.80;76.40
52295;DHT22;38243;53.212;6.574;2023-04-24T13:33:51;18.90;76.70
52295;DHT22;38243;53.212;6.574;2023-04-24T13:36:17;18.80;76.50
52295;DHT22;38243;53.212;6.574;2023-04-24T13:38:43;18.90;76.50
52295;DHT22;38243;53.212;6.574;2023-04-24T13:41:10;18.80;76.40
52295;DHT22;38243;53.212;6.574;2023-04-24T13:43:36;18.80;76.00
52295;DHT22;38243;53.212;6.574;2023-04-24T13:46:02;18.80;74.60
52295;DHT22;38243;53.212;6.574;2023-04-24T13:48:30;18.70;74.00
52295;DHT22;38243;53.212;6.574;2023-04-24T13:50:56;18.60;73.70
52295;DHT22;38243;53.212;6.574;2023-04-24T13:53:22;18.60;73.40
52295;DHT22;38243;53.212;6.574;2023-04-24T13:55:48;18.50;73.90
52295;DHT22;38243;53.212;6.574;2023-04-24T13:58:14;18.40;73.30
52295;DHT22;38243;53.212;6.574;2023-04-24T14:00:40;18.40;73.70
52295;DHT22;38243;53.212;6.574;2023-04-24T14:03:06;18.30;73.40
52295;DHT22;38243;53.212;6.574;2023-04-24T14:05:32;18.30;73.00
52295;DHT22;38243;53.212;6.574;2023-04-24T14:07:58;18.40;73.10
52295;DHT22;38243;53.212;6.574;2023-04-24T14:10:24;18.30;73.30
52295;DHT22;38243;53.212;6.574;2023-04-24T14:12:51;18.20;73.40
52295;DHT22;38243;53.212;6.574;2023-04-24T14:15:17;18.20;73.30
52295;DHT22;38243;53.212;6.574;2023-04-24T14:17:43;18.20;73.70
52295;DHT22;38243;53.212;6.574;2023-04-24T14:20:09;18.10;73.70
52295;DHT22;38243;53.212;6.574;2023-04-24T14:22:35;18.00;73.20
52295;DHT22;38243;53.212;6.574;2023-04-24T14:25:00;17.90;73.00
52295;DHT22;38243;53.212;6.574;2023-04-24T14:27:26;17.90;73.80
52295;DHT22;38243;53.212;6.574;2023-04-24T14:29:52;18.00;75.00
52295;DHT22;38243;53.212;6.574;2023-04-24T14:32:18;18.00;75.30
52295;DHT22;38243;53.212;6.574;2023-04-24T14:34:44;18.10;75.40
52295;DHT22;38243;53.212;6.574;2023-04-24T14:37:09;18.20;75.40
52295;DHT22;38243;53.212;6.574;2023-04-24T14:39:35;18.30;75.50
52295;DHT22;38243;53.212;6.574;2023-04-24T14:42:01;18.40;75.40
52295;DHT22;38243;53.212;6.574;2023-04-24T14:44:27;18.50;75.40
52295;DHT22;38243;53.212;6.574;2023-04-24T14:46:53;18.60;75.20
52295;DHT22;38243;53.212;6.574;2023-04-24T14:49:19;18.70;75.20
52295;DHT22;38243;53.212;6.574;2023-04-24T14:51:44;18.80;75.10
52295;DHT22;38243;53.212;6.574;2023-04-24T14:54:10;18.90;75.50
52295;DHT22;38243;53.212;6.574;2023-04-24T14:56:36;18.90;74.70
52295;DHT22;38243;53.212;6.574;2023-04-24T14:59:02;19.00;74.60
52295;DHT22;38243;53.212;6.574;2023-04-24T15:01:28;19.00;74.30
52295;DHT22;38243;53.212;6.574;2023-04-24T15:03:54;19.10;74.20
52295;DHT22;38243;53.212;6.574;2023-04-24T15:06:19;19.20;74.10
52295;DHT22;38243;53.212;6.574;2023-04-24T15:08:46;19.20;73.90
52295;DHT22;38243;53.212;6.574;2023-04-24T15:11:11;19.30;73.80
52295;DHT22;38243;53.212;6.574;2023-04-24T15:13:37;19.30;73.70
52295;DHT22;38243;53.212;6.574;2023-04-24T15:16:03;19.30;73.50
52295;DHT22;38243;53.212;6.574;2023-04-24T15:18:29;19.30;73.40
52295;DHT22;38243;53.212;6.574;2023-04-24T15:20:55;19.30;73.40
52295;DHT22;38243;53.212;6.574;2023-04-24T15:23:21;19.40;73.40
52295;DHT22;38243;53.212;6.574;2023-04-24T15:25:47;19.40;73.20
52295;DHT22;38243;53.212;6.574;2023-04-24T15:28:13;19.40;73.20
52295;DHT22;38243;53.212;6.574;2023-04-24T15:30:39;19.40;72.90
52295;DHT22;38243;53.212;6.574;2023-04-24T15:33:05;19.40;73.00
52295;DHT22;38243;53.212;6.574;2023-04-24T15:35:30;19.40;73.10